createdAt,value
2023-02-19T00:00:26.115Z,98982.45
2023-02-19T00:02:59.242Z,98990.39
2023-02-19T00:05:29.726Z,98992.98
2023-02-19T00:07:58.974Z,98997.85
2023-02-19T00:10:31.035Z,98996.85
2023-02-19T00:13:02.230Z,98996.19
2023-02-19T00:15:36.986Z,98995.61
2023-02-19T00:18:07.273Z,98993.17
2023-02-19T00:20:39.360Z,98992.83
2023-02-19T00:23:11.913Z,98994.41
2023-02-19T00:25:42.112Z,98992.08
2023-02-19T00:28:11.952Z,98989.74
2023-02-19T00:30:41.756Z,98986.83
2023-02-19T00:33:11.929Z,98982.81
2023-02-19T00:35:41.335Z,98981.67
2023-02-19T00:38:11.645Z,98988.77
2023-02-19T00:40:41.175Z,98991.47
2023-02-19T00:43:11.588Z,98990.76
2023-02-19T00:45:42.979Z,98992.27
2023-02-19T00:48:13.205Z,98991.42
2023-02-19T00:50:43.695Z,98997.20
2023-02-19T00:53:13.097Z,98996.82
2023-02-19T00:55:42.644Z,98996.23
2023-02-19T00:58:12.156Z,98998.20
2023-02-19T01:00:41.738Z,98999.02
2023-02-19T01:03:14.435Z,99004.42
2023-02-19T01:05:44.439Z,99006.16
2023-02-19T01:08:13.739Z,99008.42
2023-02-19T01:10:43.724Z,99004.13
2023-02-19T01:17:18.329Z,99015.39
2023-02-19T01:19:48.143Z,99018.35
2023-02-19T01:22:17.084Z,99022.45
2023-02-19T01:24:47.420Z,99017.91
2023-02-19T01:27:18.973Z,99015.22
2023-02-19T01:29:52.015Z,99013.63
2023-02-19T01:32:21.201Z,99014.77
2023-02-19T01:34:53.869Z,99021.33
2023-02-19T01:37:23.474Z,99028.02
2023-02-19T01:39:52.358Z,99026.69
2023-02-19T01:42:24.058Z,99025.42
2023-02-19T01:45:34.513Z,99028.36
2023-02-19T01:48:09.990Z,99030.45
2023-02-19T01:50:43.932Z,99031.41
2023-02-19T01:53:15.398Z,99028.59
2023-02-19T01:55:45.457Z,99028.14
2023-02-19T01:58:16.486Z,99028.83
2023-02-19T02:00:45.894Z,99034.39
2023-02-19T02:03:16.940Z,99031.37
2023-02-19T02:06:17.563Z,99036.44
2023-02-19T02:09:05.891Z,99036.56
2023-02-19T02:11:35.370Z,99039.28
2023-02-19T02:14:05.806Z,99048.73
2023-02-19T02:16:40.917Z,99057.63
2023-02-19T02:19:33.028Z,99060.73
2023-02-19T02:22:08.480Z,99058.98
2023-02-19T02:25:09.129Z,99058.23
2023-02-19T02:28:02.632Z,99067.09
2023-02-19T02:30:48.249Z,99063.84
2023-02-19T02:33:32.826Z,99067.43
2023-02-19T02:36:09.253Z,99070.52
2023-02-19T02:38:40.908Z,99076.17
2023-02-19T02:41:12.022Z,99074.81
2023-02-19T02:43:44.989Z,99078.48
2023-02-19T02:46:20.313Z,99080.20
2023-02-19T02:49:16.198Z,99083.38
2023-02-19T02:51:48.903Z,99085.02
2023-02-19T02:54:46.573Z,99090.22
2023-02-19T02:57:16.176Z,99086.02
2023-02-19T02:59:52.217Z,99087.22
2023-02-19T03:02:28.779Z,99089.98
2023-02-19T03:05:36.551Z,99094.93
2023-02-19T03:08:17.296Z,99100.63
2023-02-19T03:10:56.482Z,99101.27
2023-02-19T03:13:52.918Z,99115.96
2023-02-19T03:16:43.816Z,99112.80
2023-02-19T03:19:21.762Z,99115.02
2023-02-19T03:22:02.720Z,99114.85
2023-02-19T03:24:52.294Z,99116.20
2023-02-19T03:27:22.120Z,99115.64
2023-02-19T03:29:55.435Z,99121.80
2023-02-19T03:32:38.639Z,99121.30
2023-02-19T03:35:16.513Z,99126.10
2023-02-19T03:38:12.354Z,99117.80
2023-02-19T03:40:54.730Z,99118.68
2023-02-19T03:43:33.956Z,99126.02
2023-02-19T03:46:09.803Z,99135.63
2023-02-19T03:49:02.376Z,99139.73
2023-02-19T03:51:52.943Z,99142.05
2023-02-19T03:54:49.563Z,99144.74
2023-02-19T03:57:25.630Z,99149.10
2023-02-19T04:00:07.857Z,99149.80
2023-02-19T04:02:58.502Z,99149.64
2023-02-19T04:05:30.234Z,99149.85
2023-02-19T04:08:05.388Z,99149.48
2023-02-19T04:10:38.505Z,99149.58
2023-02-19T04:13:20.555Z,99147.73
2023-02-19T04:15:49.881Z,99145.02
2023-02-19T04:18:32.510Z,99148.40
2023-02-19T04:21:04.058Z,99148.43
2023-02-19T04:23:37.012Z,99151.92
2023-02-19T04:26:09.876Z,99145.11
2023-02-19T04:28:39.922Z,99149.59
2023-02-19T04:31:10.142Z,99155.64
2023-02-19T04:33:41.128Z,99158.20
2023-02-19T04:36:11.467Z,99168.20
2023-02-19T04:38:40.904Z,99166.54
2023-02-19T04:41:14.532Z,99165.64
2023-02-19T04:43:43.965Z,99176.52
2023-02-19T04:46:13.030Z,99185.96
2023-02-19T04:48:44.703Z,99187.46
2023-02-19T04:51:14.174Z,99184.02
2023-02-19T04:53:44.196Z,99190.29
2023-02-19T04:56:15.639Z,99190.02
2023-02-19T04:58:45.725Z,99196.08
2023-02-19T05:01:17.043Z,99203.54
2023-02-19T05:03:49.694Z,99194.91
2023-02-19T05:06:20.044Z,99200.67
2023-02-19T05:08:53.257Z,99203.78
2023-02-19T05:11:24.938Z,99211.21
2023-02-19T05:13:56.081Z,99215.00
2023-02-19T05:16:26.295Z,99216.91
2023-02-19T05:18:55.954Z,99222.10
2023-02-19T05:21:25.618Z,99227.19
2023-02-19T05:23:54.898Z,99228.70
2023-02-19T05:26:24.726Z,99231.29
2023-02-19T05:28:54.836Z,99230.71
2023-02-19T05:31:24.732Z,99227.70
2023-02-19T05:33:56.834Z,99232.83
2023-02-19T05:36:27.311Z,99232.39
2023-02-19T05:38:57.670Z,99229.56
2023-02-19T05:41:28.249Z,99231.48
2023-02-19T05:43:58.998Z,99232.39
2023-02-19T05:46:33.204Z,99235.06
2023-02-19T05:49:04.146Z,99242.15
2023-02-19T05:51:33.645Z,99244.55
2023-02-19T05:54:03.286Z,99247.08
2023-02-19T05:56:37.183Z,99245.79
2023-02-19T05:59:28.223Z,99246.08
2023-02-19T06:01:59.478Z,99245.75
2023-02-19T06:04:28.942Z,99254.27
2023-02-19T06:06:59.799Z,99256.88
2023-02-19T06:09:31.530Z,99255.67
2023-02-19T06:12:01.281Z,99259.23
2023-02-19T06:14:33.725Z,99265.23
2023-02-19T06:17:04.343Z,99265.30
2023-02-19T06:19:34.405Z,99263.11
2023-02-19T06:22:04.202Z,99258.39
2023-02-19T06:24:37.840Z,99261.10
2023-02-19T06:27:08.500Z,99260.23
2023-02-19T06:29:41.118Z,99255.95
2023-02-19T06:32:11.965Z,99250.82
2023-02-19T06:34:41.610Z,99245.92
2023-02-19T06:37:11.254Z,99247.13
2023-02-19T06:39:55.053Z,99245.69
2023-02-19T06:42:26.355Z,99248.89
2023-02-19T06:44:55.618Z,99242.35
2023-02-19T06:47:26.075Z,99246.02
2023-02-19T06:49:59.159Z,99244.86
2023-02-19T06:52:28.779Z,99246.54
2023-02-19T06:54:58.951Z,99242.84
2023-02-19T06:57:30.248Z,99248.37
2023-02-19T07:00:01.261Z,99249.02
2023-02-19T07:02:33.657Z,99249.75
2023-02-19T07:05:09.895Z,99248.90
2023-02-19T07:07:42.175Z,99248.86
2023-02-19T07:10:14.098Z,99251.41
2023-02-19T07:12:44.357Z,99247.61
2023-02-19T07:15:14.126Z,99245.05
2023-02-19T07:17:45.514Z,99248.87
2023-02-19T07:20:15.491Z,99252.63
2023-02-19T07:22:48.672Z,99251.69
2023-02-19T07:25:18.893Z,99255.95
2023-02-19T07:27:48.366Z,99257.02
2023-02-19T07:30:19.565Z,99256.58
2023-02-19T07:32:50.378Z,99250.50
2023-02-19T07:35:19.933Z,99257.91
2023-02-19T07:37:49.680Z,99256.01
2023-02-19T07:40:19.222Z,99253.80
2023-02-19T07:42:52.556Z,99249.71
2023-02-19T07:45:21.957Z,99255.96
2023-02-19T07:47:51.791Z,99254.02
2023-02-19T07:50:22.775Z,99254.79
2023-02-19T07:52:53.136Z,99251.44
2023-02-19T07:55:22.434Z,99256.70
2023-02-19T07:57:51.744Z,99261.46
2023-02-19T08:00:21.873Z,99266.68
2023-02-19T08:03:03.972Z,99269.70
2023-02-19T08:05:43.174Z,99268.23
2023-02-19T08:08:15.937Z,99265.94
2023-02-19T08:11:04.880Z,99267.09
2023-02-19T08:13:35.434Z,99270.92
2023-02-19T08:16:18.423Z,99268.79
2023-02-19T08:18:53.012Z,99273.98
2023-02-19T08:21:23.312Z,99271.44
2023-02-19T08:23:52.732Z,99279.98
2023-02-19T08:26:22.347Z,99282.20
2023-02-19T08:28:51.862Z,99286.48
2023-02-19T08:31:28.378Z,99284.09
2023-02-19T08:33:58.190Z,99286.80
2023-02-19T08:36:28.062Z,99291.02
2023-02-19T08:38:57.879Z,99299.09
2023-02-19T08:41:27.366Z,99296.66
2023-02-19T08:43:57.188Z,99294.70
2023-02-19T08:46:28.877Z,99298.06
2023-02-19T08:48:58.429Z,99294.30
2023-02-19T08:51:28.148Z,99295.71
2023-02-19T08:53:57.425Z,99293.34
2023-02-19T08:56:26.631Z,99295.92
2023-02-19T08:58:55.750Z,99286.30
2023-02-19T09:01:25.074Z,99294.87
2023-02-19T09:03:58.712Z,99287.95
2023-02-19T09:06:28.956Z,99285.96
2023-02-19T09:08:58.834Z,99283.79
2023-02-19T09:11:29.603Z,99280.23
2023-02-19T09:14:02.931Z,99279.20
2023-02-19T09:16:37.150Z,99285.32
2023-02-19T09:19:06.798Z,99282.28
2023-02-19T09:21:36.725Z,99277.11
2023-02-19T09:24:06.144Z,99280.73
2023-02-19T09:26:37.647Z,99274.20
2023-02-19T09:29:07.764Z,99279.38
2023-02-19T09:31:37.207Z,99275.18
2023-02-19T09:34:18.149Z,99273.16
2023-02-19T09:36:49.800Z,99273.61
2023-02-19T09:39:20.470Z,99270.33
2023-02-19T09:41:55.216Z,99274.61
2023-02-19T09:44:32.618Z,99281.46
2023-02-19T09:47:02.891Z,99289.98
2023-02-19T09:49:35.042Z,99282.50
2023-02-19T09:52:09.118Z,99284.08
2023-02-19T09:54:37.876Z,99285.02
2023-02-19T09:57:06.610Z,99284.51
2023-02-19T09:59:42.694Z,99280.98
2023-02-19T10:02:26.207Z,99269.31
2023-02-19T10:04:58.079Z,99267.54
2023-02-19T10:07:39.179Z,99261.08
2023-02-19T10:10:15.783Z,99256.55
2023-02-19T10:12:48.110Z,99250.52
2023-02-19T10:15:32.438Z,99248.52
2023-02-19T10:18:11.299Z,99249.39
2023-02-19T10:20:41.567Z,99248.04
2023-02-19T10:23:11.751Z,99245.45
2023-02-19T10:25:44.766Z,99238.59
2023-02-19T10:28:16.368Z,99234.36
2023-02-19T10:30:46.627Z,99238.75
2023-02-19T10:33:16.601Z,99238.96
2023-02-19T10:36:06.328Z,99234.44
2023-02-19T10:38:38.928Z,99234.25
2023-02-19T10:41:20.381Z,99228.68
2023-02-19T10:44:03.520Z,99220.30
2023-02-19T10:46:56.139Z,99213.91
2023-02-19T10:49:33.050Z,99209.04
2023-02-19T10:52:11.022Z,99201.09
2023-02-19T10:54:41.355Z,99192.80
2023-02-19T10:57:30.941Z,99186.79
2023-02-19T11:00:23.371Z,99184.05
2023-02-19T11:02:56.590Z,99174.23
2023-02-19T11:05:26.062Z,99168.36
2023-02-19T11:07:56.903Z,99166.13
2023-02-19T11:10:42.979Z,99159.64
2023-02-19T11:13:18.453Z,99156.82
2023-02-19T11:15:52.389Z,99151.70
2023-02-19T11:18:26.627Z,99154.27
2023-02-19T11:21:00.479Z,99148.52
2023-02-19T11:23:31.482Z,99148.77
2023-02-19T11:26:07.317Z,99143.85
2023-02-19T11:28:39.439Z,99138.69
2023-02-19T11:31:20.236Z,99133.63
2023-02-19T11:33:57.265Z,99137.73
2023-02-19T11:36:36.286Z,99141.73
2023-02-19T11:39:17.076Z,99136.77
2023-02-19T11:41:57.002Z,99140.27
2023-02-19T11:45:02.796Z,99138.48
2023-02-19T11:47:58.893Z,99139.98
2023-02-19T11:50:43.250Z,99143.95
2023-02-19T11:53:29.769Z,99146.48
2023-02-19T11:56:19.551Z,99153.64
2023-02-19T11:59:05.452Z,99155.55
2023-02-19T12:01:53.317Z,99152.42
2023-02-19T12:04:43.925Z,99155.38
2023-02-19T12:07:40.700Z,99152.51
2023-02-19T12:10:35.017Z,99145.98
2023-02-19T12:13:41.489Z,99147.90
2023-02-19T12:16:18.562Z,99151.13
2023-02-19T12:18:59.609Z,99153.61
2023-02-19T12:21:47.608Z,99151.98
2023-02-19T12:24:20.587Z,99154.78
2023-02-19T12:27:12.393Z,99155.14
2023-02-19T12:29:50.729Z,99155.80
2023-02-19T12:32:26.460Z,99154.02
2023-02-19T12:35:17.648Z,99152.52
2023-02-19T12:38:17.569Z,99150.94
2023-02-19T12:41:04.588Z,99145.74
2023-02-19T12:43:34.350Z,99148.15
2023-02-19T12:46:29.428Z,99149.48
2023-02-19T12:49:14.519Z,99152.96
2023-02-19T12:51:50.064Z,99149.84
2023-02-19T12:54:55.625Z,99150.20
2023-02-19T12:57:26.746Z,99154.01
2023-02-19T13:00:11.319Z,99152.38
2023-02-19T13:03:21.388Z,99156.33
2023-02-19T13:06:32.782Z,99158.52
2023-02-19T13:09:39.868Z,99159.20
2023-02-19T13:12:21.445Z,99162.06
2023-02-19T13:14:55.221Z,99163.34
2023-02-19T13:17:51.021Z,99164.11
2023-02-19T13:20:32.936Z,99162.84
2023-02-19T13:23:32.732Z,99162.79
2023-02-19T13:26:37.670Z,99157.96
2023-02-19T13:29:46.871Z,99158.48
2023-02-19T13:32:30.798Z,99152.84
2023-02-19T13:35:32.208Z,99152.67
2023-02-19T13:38:02.839Z,99151.18
2023-02-19T13:40:36.344Z,99145.55
2023-02-19T13:43:07.721Z,99143.55
2023-02-19T13:45:44.471Z,99145.11
2023-02-19T13:48:36.250Z,99145.84
2023-02-19T13:51:22.702Z,99146.75
2023-02-19T13:54:00.778Z,99138.11
2023-02-19T13:56:37.130Z,99137.65
2023-02-19T13:59:37.911Z,99139.02
2023-02-19T14:02:12.867Z,99145.10
2023-02-19T14:05:02.628Z,99148.41
2023-02-19T14:07:32.211Z,99148.52
2023-02-19T14:10:02.700Z,99147.14
2023-02-19T14:12:37.010Z,99147.77
2023-02-19T14:15:26.209Z,99149.87
2023-02-19T14:17:55.718Z,99146.48
2023-02-19T14:20:40.548Z,99152.10
2023-02-19T14:23:16.964Z,99151.92
2023-02-19T14:25:56.416Z,99154.09
2023-02-19T14:28:31.355Z,99153.12
2023-02-19T14:31:11.260Z,99150.50
2023-02-19T14:33:45.526Z,99154.90
2023-02-19T14:36:36.143Z,99155.55
2023-02-19T14:39:17.670Z,99152.92
2023-02-19T14:41:57.942Z,99157.78
2023-02-19T14:44:31.526Z,99152.38
2023-02-19T14:47:05.842Z,99155.77
2023-02-19T14:49:43.294Z,99154.11
2023-02-19T14:52:17.833Z,99153.34
2023-02-19T14:54:53.123Z,99155.94
2023-02-19T14:57:24.721Z,99156.02
2023-02-19T14:59:56.503Z,99159.02
2023-02-19T15:02:26.450Z,99157.70
2023-02-19T15:04:57.492Z,99160.76
2023-02-19T15:07:33.380Z,99158.61
2023-02-19T15:10:04.907Z,99159.80
2023-02-19T15:12:50.263Z,99162.92
2023-02-19T15:15:23.884Z,99163.91
2023-02-19T15:17:56.231Z,99169.19
2023-02-19T15:20:28.466Z,99170.33
2023-02-19T15:22:59.375Z,99171.66
2023-02-19T15:25:35.327Z,99175.70
2023-02-19T15:28:26.766Z,99175.73
2023-02-19T15:30:58.198Z,99175.52
2023-02-19T15:33:27.994Z,99178.39
2023-02-19T15:36:01.898Z,99180.98
2023-02-19T15:38:34.471Z,99179.91
2023-02-19T15:41:04.309Z,99178.80
2023-02-19T15:43:42.510Z,99186.76
2023-02-19T15:46:22.331Z,99190.83
2023-02-19T15:49:15.528Z,99193.02
2023-02-19T15:52:00.388Z,99195.80
2023-02-19T15:54:34.911Z,99195.46
2023-02-19T15:57:07.530Z,99195.45
2023-02-19T15:59:42.591Z,99196.39
2023-02-19T16:02:14.080Z,99196.00
2023-02-19T16:04:45.428Z,99194.15
2023-02-19T16:07:31.972Z,99193.91
2023-02-19T16:10:21.139Z,99197.52
2023-02-19T16:13:00.786Z,99198.44
2023-02-19T16:15:32.599Z,99198.71
2023-02-19T16:18:02.573Z,99202.91
2023-02-19T16:20:33.742Z,99201.82
2023-02-19T16:23:06.208Z,99199.05
2023-02-19T16:25:44.563Z,99206.13
2023-02-19T16:28:24.596Z,99199.72
2023-02-19T16:31:05.011Z,99204.51
2023-02-19T16:33:40.392Z,99203.65
2023-02-19T16:36:18.047Z,99211.13
2023-02-19T16:39:07.456Z,99212.26
2023-02-19T16:41:48.891Z,99212.67
2023-02-19T16:44:31.482Z,99214.15
2023-02-19T16:47:04.467Z,99214.18
2023-02-19T16:49:33.912Z,99206.42
2023-02-19T16:52:04.406Z,99209.41
2023-02-19T16:54:33.958Z,99213.26
2023-02-19T16:57:02.850Z,99213.73
2023-02-19T16:59:31.830Z,99206.70
2023-02-19T17:02:04.698Z,99206.59
2023-02-19T17:04:35.368Z,99204.48
2023-02-19T17:07:04.330Z,99203.41
2023-02-19T17:09:33.880Z,99200.52
2023-02-19T17:12:09.150Z,99198.74
2023-02-19T17:14:40.520Z,99196.55
2023-02-19T17:17:09.565Z,99192.73
2023-02-19T17:19:39.621Z,99192.78
2023-02-19T17:22:08.846Z,99191.05
2023-02-19T17:24:38.279Z,99195.85
2023-02-19T17:27:11.784Z,99198.39
2023-02-19T17:29:40.681Z,99199.80
2023-02-19T17:32:09.884Z,99205.38
2023-02-19T17:34:38.882Z,99210.44
2023-02-19T17:37:08.201Z,99208.61
2023-02-19T17:39:37.642Z,99209.95
2023-02-19T17:42:07.119Z,99211.13
2023-02-19T17:44:36.736Z,99210.96
2023-02-19T17:47:07.579Z,99213.40
2023-02-19T17:49:37.219Z,99217.52
2023-02-19T17:52:07.849Z,99216.42
2023-02-19T17:54:37.760Z,99219.83
2023-02-19T17:57:08.016Z,99218.40
2023-02-19T17:59:37.064Z,99222.63
2023-02-19T18:02:06.617Z,99223.50
2023-02-19T18:04:38.963Z,99230.89
2023-02-19T18:07:10.518Z,99232.45
2023-02-19T18:09:42.307Z,99226.09
2023-02-19T18:12:11.873Z,99227.48
2023-02-19T18:14:41.051Z,99230.70
2023-02-19T18:17:10.099Z,99238.58
2023-02-19T18:19:39.819Z,99241.54
2023-02-19T18:22:08.817Z,99241.52
2023-02-19T18:24:37.718Z,99250.30
2023-02-19T18:27:10.620Z,99253.20
2023-02-19T18:29:39.580Z,99262.65
2023-02-19T18:32:09.611Z,99263.70
2023-02-19T18:34:40.325Z,99262.11
2023-02-19T18:37:09.349Z,99257.88
2023-02-19T18:39:38.972Z,99262.55
2023-02-19T18:42:08.540Z,99264.53
2023-02-19T18:44:38.251Z,99262.02
2023-02-19T18:47:07.719Z,99263.42
2023-02-19T18:49:43.080Z,99261.63
2023-02-19T18:52:13.080Z,99261.70
2023-02-19T18:54:44.320Z,99262.73
2023-02-19T18:57:13.800Z,99260.95
2023-02-19T18:59:43.221Z,99262.23
2023-02-19T19:02:12.781Z,99264.55
2023-02-19T19:04:43.552Z,99265.88
2023-02-19T19:07:12.738Z,99267.75
2023-02-19T19:09:41.821Z,99271.52
2023-02-19T19:12:11.072Z,99274.27
2023-02-19T19:14:40.574Z,99280.21
2023-02-19T19:17:10.172Z,99284.06
2023-02-19T19:19:41.929Z,99295.05
2023-02-19T19:22:11.314Z,99302.48
2023-02-19T19:24:40.940Z,99307.91
2023-02-19T19:27:10.843Z,99318.88
2023-02-19T19:29:41.143Z,99327.45
2023-02-19T19:32:10.933Z,99324.57
2023-02-19T19:34:40.152Z,99326.23
2023-02-19T19:37:10.102Z,99328.64
2023-02-19T19:39:39.144Z,99333.33
2023-02-19T19:42:09.694Z,99340.85
2023-02-19T19:44:38.620Z,99342.59
2023-02-19T19:47:08.755Z,99344.77
2023-02-19T19:49:39.220Z,99339.29
2023-02-19T19:52:08.903Z,99340.98
2023-02-19T19:54:44.990Z,99338.88
2023-02-19T19:57:16.568Z,99342.63
2023-02-19T19:59:49.343Z,99347.86
2023-02-19T20:02:19.289Z,99349.62
2023-02-19T20:04:48.528Z,99349.85
2023-02-19T20:07:17.485Z,99354.39
2023-02-19T20:09:50.324Z,99357.27
2023-02-19T20:12:20.683Z,99360.55
2023-02-19T20:14:50.119Z,99362.88
2023-02-19T20:17:20.668Z,99366.61
2023-02-19T20:19:49.807Z,99366.91
2023-02-19T20:22:19.970Z,99369.45
2023-02-19T20:24:52.840Z,99371.76
2023-02-19T20:27:22.055Z,99379.08
2023-02-19T20:29:51.396Z,99379.09
2023-02-19T20:32:20.982Z,99380.23
2023-02-19T20:34:52.155Z,99382.91
2023-02-19T20:37:21.075Z,99383.83
2023-02-19T20:39:51.020Z,99385.48
2023-02-19T20:42:20.249Z,99385.70
2023-02-19T20:44:51.029Z,99387.96
2023-02-19T20:47:20.159Z,99394.69
2023-02-19T20:49:53.318Z,99394.23
2023-02-19T20:52:25.101Z,99397.82
2023-02-19T20:55:01.550Z,99401.16
2023-02-19T20:57:30.783Z,99409.03
2023-02-19T21:00:01.160Z,99412.97
2023-02-19T21:02:31.284Z,99413.08
2023-02-19T21:05:03.396Z,99417.14
2023-02-19T21:07:32.492Z,99420.05
2023-02-19T21:10:02.005Z,99423.58
2023-02-19T21:12:37.072Z,99424.38
2023-02-19T21:15:06.704Z,99427.42
2023-02-19T21:17:36.177Z,99427.86
2023-02-19T21:20:07.868Z,99423.42
2023-02-19T21:22:37.579Z,99426.23
2023-02-19T21:25:09.917Z,99423.98
2023-02-19T21:27:40.266Z,99427.59
2023-02-19T21:30:11.489Z,99431.04
2023-02-19T21:32:42.132Z,99434.39
2023-02-19T21:35:11.964Z,99436.67
2023-02-19T21:37:44.767Z,99438.70
2023-02-19T21:40:13.915Z,99438.60
2023-02-19T21:42:43.822Z,99438.50
2023-02-19T21:45:13.479Z,99441.84
2023-02-19T21:47:44.298Z,99447.55
2023-02-19T21:50:15.552Z,99448.33
2023-02-19T21:52:44.961Z,99453.13
2023-02-19T21:55:14.613Z,99449.41
2023-02-19T21:57:43.863Z,99453.58
2023-02-19T22:00:13.786Z,99452.03
2023-02-19T22:02:43.327Z,99453.92
2023-02-19T22:05:12.570Z,99460.47
2023-02-19T22:07:41.765Z,99464.10
2023-02-19T22:10:16.427Z,99461.81
2023-02-19T22:12:45.815Z,99460.27
2023-02-19T22:15:18.138Z,99463.98
2023-02-19T22:17:47.284Z,99472.09
2023-02-19T22:20:17.591Z,99471.95
2023-02-19T22:22:46.800Z,99464.69
2023-02-19T22:25:18.362Z,99463.55
2023-02-19T22:27:49.369Z,99465.06
2023-02-19T22:30:18.488Z,99468.48
2023-02-19T22:32:47.122Z,99467.66
2023-02-19T22:35:16.043Z,99468.11
2023-02-19T22:37:47.327Z,99465.96
2023-02-19T22:40:16.664Z,99469.52
2023-02-19T22:42:46.899Z,99473.27
2023-02-19T22:45:18.762Z,99477.34
2023-02-19T22:47:48.110Z,99479.69
2023-02-19T22:50:22.831Z,99478.73
2023-02-19T22:52:55.732Z,99482.69
2023-02-19T22:55:24.610Z,99482.23
2023-02-19T22:57:55.962Z,99480.56
2023-02-19T23:00:24.719Z,99480.58
2023-02-19T23:02:53.411Z,99479.98
2023-02-19T23:05:24.958Z,99482.27
2023-02-19T23:07:54.154Z,99480.08
2023-02-19T23:10:25.931Z,99484.64
2023-02-19T23:12:56.620Z,99489.00
2023-02-19T23:15:27.079Z,99486.94
2023-02-19T23:17:55.723Z,99489.64
2023-02-19T23:20:24.444Z,99493.63
2023-02-19T23:22:54.478Z,99487.61
2023-02-19T23:25:23.493Z,99487.29
2023-02-19T23:27:53.069Z,99487.49
2023-02-19T23:30:21.958Z,99489.06
2023-02-19T23:32:54.240Z,99497.98
2023-02-19T23:35:24.122Z,99493.77
2023-02-19T23:37:55.682Z,99499.42
2023-02-19T23:40:24.564Z,99499.64
2023-02-19T23:42:55.022Z,99500.99
2023-02-19T23:45:26.500Z,99502.20
2023-02-19T23:47:57.685Z,99501.34
2023-02-19T23:50:26.571Z,99501.02
2023-02-19T23:53:00.682Z,99501.45
2023-02-19T23:55:31.007Z,99506.27
2023-02-19T23:58:01.469Z,99504.52
